createdAt,value
2023-05-14T00:00:22.000Z,37.08
2023-05-14T00:01:21.810Z,37.08
2023-05-14T00:02:21.939Z,36.99
2023-05-14T00:03:22.036Z,36.89
2023-05-14T00:04:21.850Z,36.89
2023-05-14T00:05:21.776Z,36.89
2023-05-14T00:06:21.758Z,36.79
2023-05-14T00:07:21.752Z,36.79
2023-05-14T00:08:21.745Z,36.69
2023-05-14T00:09:21.877Z,36.69
2023-05-14T00:10:22.161Z,36.59
2023-05-14T00:11:21.711Z,36.59
2023-05-14T00:12:21.694Z,36.49
2023-05-14T00:13:21.690Z,36.49
2023-05-14T00:14:21.679Z,36.39
2023-05-14T00:15:21.697Z,36.39
2023-05-14T00:16:21.707Z,36.39
2023-05-14T00:17:21.672Z,36.29
2023-05-14T00:18:21.634Z,36.29
2023-05-14T00:19:21.870Z,36.29
2023-05-14T00:20:21.854Z,36.19
2023-05-14T00:21:21.635Z,36.19
2023-05-14T00:22:21.603Z,36.19
2023-05-14T00:23:21.591Z,36.09
2023-05-14T00:24:21.568Z,36.09
2023-05-14T00:25:21.562Z,36.09
2023-05-14T00:26:21.583Z,35.99
2023-05-14T00:27:21.540Z,35.99
2023-05-14T00:28:21.524Z,35.99
2023-05-14T00:29:21.518Z,35.99
2023-05-14T00:30:21.629Z,35.99
2023-05-14T00:31:21.577Z,35.89
2023-05-14T00:32:21.634Z,35.89
2023-05-14T00:33:21.477Z,35.89
2023-05-14T00:34:21.463Z,35.89
2023-05-14T00:35:21.575Z,35.89
2023-05-14T00:36:21.442Z,35.79
2023-05-14T00:37:21.451Z,35.79
2023-05-14T00:38:21.545Z,35.79
2023-05-14T00:39:21.421Z,35.79
2023-05-14T00:40:21.674Z,35.79
2023-05-14T00:41:21.388Z,35.79
2023-05-14T00:42:21.381Z,35.69
2023-05-14T00:43:21.393Z,35.69
2023-05-14T00:44:21.365Z,35.69
2023-05-14T00:45:21.373Z,35.69
2023-05-14T00:46:21.360Z,35.69
2023-05-14T00:47:21.364Z,35.69
2023-05-14T00:48:21.326Z,35.59
2023-05-14T00:49:21.575Z,35.59
2023-05-14T00:50:21.496Z,35.59
2023-05-14T00:51:21.299Z,35.59
2023-05-14T00:52:21.274Z,35.59
2023-05-14T00:53:21.278Z,35.59
2023-05-14T00:54:21.247Z,35.59
2023-05-14T00:55:21.370Z,35.59
2023-05-14T00:56:21.230Z,35.59
2023-05-14T00:57:21.226Z,35.59
2023-05-14T00:58:21.221Z,35.49
2023-05-14T00:59:21.203Z,35.49
2023-05-14T01:00:21.388Z,35.49
2023-05-14T01:01:21.362Z,35.49
2023-05-14T01:02:21.278Z,35.49
2023-05-14T01:03:21.276Z,35.49
2023-05-14T01:04:21.143Z,35.49
2023-05-14T01:05:21.151Z,35.49
2023-05-14T01:06:21.134Z,35.49
2023-05-14T01:07:21.118Z,35.49
2023-05-14T01:08:21.106Z,35.39
2023-05-14T01:09:21.103Z,35.39
2023-05-14T01:10:21.223Z,35.39
2023-05-14T01:11:21.107Z,35.39
2023-05-14T01:12:21.090Z,35.39
2023-05-14T01:13:21.169Z,35.39
2023-05-14T01:14:21.097Z,35.39
2023-05-14T01:15:21.090Z,35.39
2023-05-14T01:16:21.040Z,35.39
2023-05-14T01:17:21.165Z,35.39
2023-05-14T01:18:20.996Z,35.39
2023-05-14T01:19:20.988Z,35.39
2023-05-14T01:20:20.992Z,35.39
2023-05-14T01:21:20.991Z,35.39
2023-05-14T01:22:20.958Z,35.39
2023-05-14T01:23:21.127Z,35.29
2023-05-14T01:24:20.946Z,35.29
2023-05-14T01:25:20.930Z,35.29
2023-05-14T01:26:20.934Z,35.29
2023-05-14T01:27:20.910Z,35.29
2023-05-14T01:28:20.898Z,35.29
2023-05-14T01:29:20.929Z,35.29
2023-05-14T01:30:20.989Z,35.29
2023-05-14T01:31:20.899Z,35.29
2023-05-14T01:32:20.867Z,35.29
2023-05-14T01:33:20.842Z,35.29
2023-05-14T01:34:27.473Z,35.29
2023-05-14T01:35:20.821Z,35.29
2023-05-14T01:36:20.810Z,35.29
2023-05-14T01:37:20.800Z,35.29
2023-05-14T01:38:20.784Z,35.29
2023-05-14T01:39:20.782Z,35.29
2023-05-14T01:40:21.097Z,35.19
2023-05-14T01:41:20.752Z,35.29
2023-05-14T01:42:20.750Z,35.19
2023-05-14T01:43:20.784Z,35.29
2023-05-14T01:44:20.728Z,35.19
2023-05-14T01:45:20.713Z,35.19
2023-05-14T01:46:20.760Z,35.19
2023-05-14T01:47:20.691Z,35.19
2023-05-14T01:48:20.710Z,35.19
2023-05-14T01:49:20.670Z,35.19
2023-05-14T01:50:20.684Z,35.19
2023-05-14T01:51:20.935Z,35.19
2023-05-14T01:52:20.648Z,35.19
2023-05-14T01:53:20.623Z,35.19
2023-05-14T01:54:20.621Z,35.19
2023-05-14T01:55:20.610Z,35.19
2023-05-14T01:56:20.602Z,35.19
2023-05-14T01:57:20.734Z,35.19
2023-05-14T01:58:20.573Z,35.19
2023-05-14T01:59:20.585Z,35.19
2023-05-14T02:00:20.652Z,35.19
2023-05-14T02:01:20.579Z,35.19
2023-05-14T02:02:20.540Z,35.19
2023-05-14T02:03:20.678Z,35.19
2023-05-14T02:04:20.566Z,35.19
2023-05-14T02:05:20.510Z,35.19
2023-05-14T02:06:20.495Z,35.19
2023-05-14T02:07:20.478Z,35.10
2023-05-14T02:08:20.472Z,35.10
2023-05-14T02:09:20.607Z,35.10
2023-05-14T02:10:20.596Z,35.10
2023-05-14T02:11:20.442Z,35.19
2023-05-14T02:12:20.428Z,35.10
2023-05-14T02:13:20.416Z,35.10
2023-05-14T02:14:20.413Z,35.10
2023-05-14T02:15:20.565Z,35.10
2023-05-14T02:16:20.481Z,35.10
2023-05-14T02:17:20.371Z,35.10
2023-05-14T02:18:20.365Z,35.10
2023-05-14T02:19:20.357Z,35.10
2023-05-14T02:20:20.371Z,35.10
2023-05-14T02:21:20.337Z,35.10
2023-05-14T02:22:20.327Z,35.10
2023-05-14T02:23:25.663Z,35.10
2023-05-14T02:24:20.320Z,35.10
2023-05-14T02:25:20.302Z,35.10
2023-05-14T02:26:20.297Z,35.10
2023-05-14T02:27:20.275Z,35.10
2023-05-14T02:28:20.260Z,35.10
2023-05-14T02:29:20.252Z,35.10
2023-05-14T02:30:20.243Z,35.10
2023-05-14T02:31:20.429Z,35.10
2023-05-14T02:32:20.252Z,35.10
2023-05-14T02:33:20.364Z,35.10
2023-05-14T02:35:12.240Z,35.10
2023-05-14T02:36:13.205Z,35.10
2023-05-14T02:37:13.426Z,35.10
2023-05-14T02:38:13.190Z,35.10
2023-05-14T02:39:13.179Z,35.10
2023-05-14T02:40:13.162Z,34.99
2023-05-14T02:41:13.162Z,34.99
2023-05-14T02:42:13.150Z,34.99
2023-05-14T02:43:13.281Z,34.99
2023-05-14T02:44:13.125Z,34.99
2023-05-14T02:45:13.146Z,34.99
2023-05-14T02:46:13.125Z,34.99
2023-05-14T02:47:13.131Z,34.99
2023-05-14T02:48:13.188Z,34.99
2023-05-14T02:49:13.087Z,34.99
2023-05-14T02:50:13.073Z,34.99
2023-05-14T02:51:13.064Z,34.99
2023-05-14T02:52:13.041Z,34.99
2023-05-14T02:53:13.039Z,34.99
2023-05-14T02:54:13.055Z,34.99
2023-05-14T02:55:13.017Z,34.99
2023-05-14T02:56:12.997Z,34.99
2023-05-14T02:57:12.991Z,34.99
2023-05-14T02:58:12.979Z,34.99
2023-05-14T02:59:12.998Z,34.99
2023-05-14T03:00:13.104Z,34.99
2023-05-14T03:01:12.979Z,34.99
2023-05-14T03:02:13.006Z,34.99
2023-05-14T03:03:12.938Z,34.99
2023-05-14T03:04:12.916Z,34.99
2023-05-14T03:05:12.916Z,34.99
2023-05-14T03:06:13.029Z,34.99
2023-05-14T03:07:12.833Z,34.99
2023-05-14T03:08:12.874Z,34.99
2023-05-14T03:09:12.870Z,34.99
2023-05-14T03:10:12.850Z,34.99
2023-05-14T03:11:12.847Z,34.99
2023-05-14T03:12:12.842Z,34.99
2023-05-14T03:13:12.825Z,34.99
2023-05-14T03:14:12.812Z,34.99
2023-05-14T03:15:12.806Z,34.99
2023-05-14T03:16:12.806Z,34.89
2023-05-14T03:17:13.032Z,34.89
2023-05-14T03:18:12.779Z,34.99
2023-05-14T03:19:12.797Z,34.99
2023-05-14T03:20:12.704Z,34.89
2023-05-14T03:21:12.696Z,34.89
2023-05-14T03:22:12.676Z,34.89
2023-05-14T03:23:12.828Z,34.89
2023-05-14T03:24:12.667Z,34.89
2023-05-14T03:25:12.650Z,34.89
2023-05-14T03:26:12.631Z,34.89
2023-05-14T03:27:12.624Z,34.89
2023-05-14T03:28:12.607Z,34.89
2023-05-14T03:29:12.722Z,34.99
2023-05-14T03:30:12.650Z,34.89
2023-05-14T03:31:12.656Z,34.89
2023-05-14T03:32:12.624Z,34.89
2023-05-14T03:33:12.617Z,34.89
2023-05-14T03:34:12.620Z,34.89
2023-05-14T03:35:18.902Z,34.89
2023-05-14T03:36:12.575Z,34.89
2023-05-14T03:37:12.575Z,34.89
2023-05-14T03:38:12.522Z,34.89
2023-05-14T03:39:12.499Z,34.99
2023-05-14T03:40:12.662Z,34.99
2023-05-14T03:41:12.524Z,34.99
2023-05-14T03:42:12.511Z,34.89
2023-05-14T03:43:12.507Z,34.89
2023-05-14T03:44:12.456Z,34.99
2023-05-14T03:45:12.436Z,34.99
2023-05-14T03:46:12.569Z,34.99
2023-05-14T03:47:12.417Z,34.99
2023-05-14T03:48:12.515Z,34.99
2023-05-14T03:49:12.478Z,34.99
2023-05-14T03:50:12.391Z,34.99
2023-05-14T03:51:12.400Z,34.99
2023-05-14T03:52:12.366Z,34.99
2023-05-14T03:53:12.354Z,34.99
2023-05-14T03:54:12.346Z,34.99
2023-05-14T03:55:12.333Z,34.99
2023-05-14T03:56:12.322Z,34.99
2023-05-14T03:57:12.553Z,34.99
2023-05-14T03:58:12.349Z,34.99
2023-05-14T03:59:12.338Z,34.99
2023-05-14T04:00:12.326Z,34.99
2023-05-14T04:01:12.323Z,34.99
2023-05-14T04:02:12.345Z,34.99
2023-05-14T04:03:12.494Z,34.99
2023-05-14T04:04:12.383Z,34.99
2023-05-14T04:05:12.257Z,34.99
2023-05-14T04:06:12.219Z,34.99
2023-05-14T04:07:12.215Z,34.99
2023-05-14T04:08:12.207Z,34.99
2023-05-14T04:09:12.312Z,34.99
2023-05-14T04:10:12.169Z,34.99
2023-05-14T04:11:12.163Z,35.01
2023-05-14T04:12:12.155Z,35.01
2023-05-14T04:13:12.143Z,34.99
2023-05-14T04:14:12.127Z,35.01
2023-05-14T04:15:12.160Z,34.99
2023-05-14T04:16:12.126Z,35.01
2023-05-14T04:17:12.106Z,34.99
2023-05-14T04:18:12.132Z,34.99
2023-05-14T04:19:12.176Z,35.01
2023-05-14T04:20:12.200Z,34.99
2023-05-14T04:21:12.056Z,34.99
2023-05-14T04:22:12.038Z,35.01
2023-05-14T04:23:12.028Z,35.01
2023-05-14T04:24:12.034Z,35.01
2023-05-14T04:25:12.024Z,35.01
2023-05-14T04:26:12.151Z,35.01
2023-05-14T04:27:12.012Z,35.01
2023-05-14T04:28:11.971Z,35.01
2023-05-14T04:29:11.977Z,35.01
2023-05-14T04:30:11.962Z,35.01
2023-05-14T04:31:11.993Z,35.01
2023-05-14T04:32:12.101Z,35.01
2023-05-14T04:33:11.932Z,35.01
2023-05-14T04:34:11.914Z,35.01
2023-05-14T04:35:18.396Z,35.01
2023-05-14T04:36:11.882Z,35.01
2023-05-14T04:37:11.896Z,35.01
2023-05-14T04:38:11.878Z,35.01
2023-05-14T04:39:11.872Z,35.01
2023-05-14T04:40:11.856Z,35.01
2023-05-14T04:41:11.850Z,35.01
2023-05-14T04:42:11.820Z,35.01
2023-05-14T04:43:11.821Z,35.01
2023-05-14T04:44:11.803Z,35.01
2023-05-14T04:45:11.804Z,35.01
2023-05-14T04:46:11.836Z,35.01
2023-05-14T04:47:11.779Z,35.01
2023-05-14T04:48:11.908Z,35.01
2023-05-14T04:49:11.751Z,35.01
2023-05-14T04:50:11.740Z,35.01
2023-05-14T04:51:11.737Z,35.01
2023-05-14T04:52:11.724Z,35.01
2023-05-14T04:53:11.715Z,35.01
2023-05-14T04:54:11.865Z,35.01
2023-05-14T04:55:11.698Z,35.01
2023-05-14T04:56:11.686Z,35.01
2023-05-14T04:57:11.669Z,35.01
2023-05-14T04:58:11.666Z,35.01
2023-05-14T04:59:11.653Z,35.01
2023-05-14T05:00:11.948Z,35.01
2023-05-14T05:01:11.702Z,35.01
2023-05-14T05:02:11.615Z,35.01
2023-05-14T05:03:11.671Z,35.01
2023-05-14T05:04:11.675Z,35.01
2023-05-14T05:05:11.588Z,35.01
2023-05-14T05:06:11.579Z,35.01
2023-05-14T05:07:11.570Z,35.01
2023-05-14T05:08:11.579Z,35.01
2023-05-14T05:09:11.549Z,35.01
2023-05-14T05:10:11.547Z,35.01
2023-05-14T05:11:11.688Z,35.01
2023-05-14T05:12:11.516Z,35.01
2023-05-14T05:13:11.494Z,35.01
2023-05-14T05:14:11.499Z,35.01
2023-05-14T05:15:11.482Z,35.01
2023-05-14T05:16:11.515Z,35.01
2023-05-14T05:17:11.625Z,35.01
2023-05-14T05:18:11.461Z,35.01
2023-05-14T05:19:11.527Z,35.01
2023-05-14T05:20:11.454Z,35.01
2023-05-14T05:21:11.422Z,35.01
2023-05-14T05:22:11.429Z,35.01
2023-05-14T05:23:11.405Z,35.01
2023-05-14T05:24:11.392Z,35.01
2023-05-14T05:25:11.392Z,35.01
2023-05-14T05:26:11.369Z,35.01
2023-05-14T05:27:11.350Z,35.01
2023-05-14T05:28:11.501Z,35.01
2023-05-14T05:29:11.335Z,35.01
2023-05-14T05:30:11.334Z,35.01
2023-05-14T05:31:11.346Z,35.01
2023-05-14T05:32:11.326Z,35.01
2023-05-14T05:33:11.332Z,35.01
2023-05-14T05:34:11.453Z,35.01
2023-05-14T05:35:11.287Z,35.01
2023-05-14T05:36:11.263Z,35.01
2023-05-14T05:37:11.257Z,35.01
2023-05-14T05:38:11.255Z,35.01
2023-05-14T05:39:11.233Z,35.01
2023-05-14T05:40:11.390Z,35.01
2023-05-14T05:41:11.202Z,35.01
2023-05-14T05:42:11.204Z,35.01
2023-05-14T05:43:11.188Z,35.01
2023-05-14T05:44:11.181Z,35.01
2023-05-14T05:45:11.175Z,35.01
2023-05-14T05:46:11.206Z,35.01
2023-05-14T05:47:11.145Z,35.01
2023-05-14T05:48:11.145Z,35.01
2023-05-14T05:49:11.128Z,35.01
2023-05-14T05:50:11.183Z,35.01
2023-05-14T05:51:11.273Z,35.01
2023-05-14T05:52:11.095Z,35.01
2023-05-14T05:53:11.088Z,35.01
2023-05-14T05:54:11.077Z,35.01
2023-05-14T05:55:11.066Z,35.01
2023-05-14T05:56:11.068Z,35.01
2023-05-14T05:57:11.199Z,35.01
2023-05-14T05:58:11.044Z,35.01
2023-05-14T05:59:11.016Z,35.01
2023-05-14T06:00:11.011Z,35.01
2023-05-14T06:01:11.000Z,35.01
2023-05-14T06:02:11.043Z,35.01
2023-05-14T06:03:11.082Z,35.01
2023-05-14T06:04:10.973Z,35.01
2023-05-14T06:05:11.013Z,35.01
2023-05-14T06:06:10.950Z,35.01
2023-05-14T06:07:10.932Z,35.01
2023-05-14T06:08:10.962Z,35.01
2023-05-14T06:09:10.921Z,35.01
2023-05-14T06:10:10.918Z,35.01
2023-05-14T06:11:10.902Z,35.01
2023-05-14T06:12:10.894Z,35.01
2023-05-14T06:13:10.872Z,35.01
2023-05-14T06:14:10.924Z,35.01
2023-05-14T06:15:10.855Z,35.01
2023-05-14T06:16:10.862Z,35.01
2023-05-14T06:17:10.842Z,35.01
2023-05-14T06:18:10.877Z,35.01
2023-05-14T06:19:10.988Z,35.01
2023-05-14T06:20:10.929Z,35.01
2023-05-14T06:21:10.785Z,35.01
2023-05-14T06:22:10.781Z,35.01
2023-05-14T06:23:10.776Z,35.01
2023-05-14T06:24:10.773Z,35.01
2023-05-14T06:25:10.749Z,35.01
2023-05-14T06:26:10.880Z,35.01
2023-05-14T06:27:10.726Z,35.01
2023-05-14T06:28:10.713Z,35.01
2023-05-14T06:29:10.706Z,35.01
2023-05-14T06:30:10.697Z,35.01
2023-05-14T06:31:10.688Z,35.01
2023-05-14T06:32:10.735Z,35.01
2023-05-14T06:33:10.768Z,35.01
2023-05-14T06:34:10.667Z,35.01
2023-05-14T06:35:10.640Z,35.01
2023-05-14T06:36:10.641Z,35.01
2023-05-14T06:37:10.799Z,35.01
2023-05-14T06:38:10.618Z,35.01
2023-05-14T06:39:10.598Z,35.01
2023-05-14T06:40:10.599Z,35.01
2023-05-14T06:41:10.583Z,35.01
2023-05-14T06:42:10.575Z,35.01
2023-05-14T06:43:10.624Z,35.01
2023-05-14T06:44:10.545Z,35.01
2023-05-14T06:45:10.555Z,35.01
2023-05-14T06:46:10.523Z,35.01
2023-05-14T06:47:10.521Z,35.01
2023-05-14T06:48:10.618Z,35.01
2023-05-14T06:49:10.751Z,35.01
2023-05-14T06:50:10.995Z,35.01
2023-05-14T06:51:10.473Z,35.01
2023-05-14T06:52:10.472Z,35.01
2023-05-14T06:53:10.477Z,35.01
2023-05-14T06:54:10.450Z,35.01
2023-05-14T06:55:10.437Z,35.01
2023-05-14T06:56:10.428Z,35.01
2023-05-14T06:57:10.411Z,35.01
2023-05-14T06:58:10.399Z,35.01
2023-05-14T06:59:10.382Z,35.01
2023-05-14T07:00:10.556Z,35.01
2023-05-14T07:01:10.417Z,35.01
2023-05-14T07:02:10.362Z,35.01
2023-05-14T07:03:10.421Z,35.01
2023-05-14T07:04:10.382Z,35.01
2023-05-14T07:05:10.324Z,35.01
2023-05-14T07:06:12.496Z,35.01
2023-05-14T07:07:10.300Z,35.01
2023-05-14T07:08:10.299Z,35.01
2023-05-14T07:09:10.282Z,35.01
2023-05-14T07:10:10.284Z,35.01
2023-05-14T07:11:10.271Z,35.11
2023-05-14T07:12:10.265Z,35.11
2023-05-14T07:13:10.254Z,35.11
2023-05-14T07:14:10.240Z,35.11
2023-05-14T07:15:10.219Z,35.11
2023-05-14T07:16:10.218Z,35.11
2023-05-14T07:17:10.395Z,35.11
2023-05-14T07:18:10.222Z,35.11
2023-05-14T07:19:10.310Z,35.11
2023-05-14T07:20:10.191Z,35.11
2023-05-14T07:21:10.174Z,35.11
2023-05-14T07:22:10.161Z,35.11
2023-05-14T07:23:10.335Z,35.11
2023-05-14T07:24:10.144Z,35.11
2023-05-14T07:25:10.115Z,35.11
2023-05-14T07:26:10.115Z,35.11
2023-05-14T07:27:10.098Z,35.11
2023-05-14T07:28:10.086Z,35.11
2023-05-14T07:29:10.244Z,35.11
2023-05-14T07:30:10.064Z,35.11
2023-05-14T07:31:10.067Z,35.11
2023-05-14T07:32:10.061Z,35.11
2023-05-14T07:33:10.094Z,35.11
2023-05-14T07:34:10.024Z,35.01
2023-05-14T07:35:10.021Z,35.01
2023-05-14T07:36:10.005Z,35.11
2023-05-14T07:37:09.996Z,35.01
2023-05-14T07:38:09.995Z,35.11
2023-05-14T07:39:09.965Z,35.01
2023-05-14T07:40:10.147Z,35.01
2023-05-14T07:41:09.949Z,35.11
2023-05-14T07:42:09.948Z,35.01
2023-05-14T07:43:09.923Z,35.11
2023-05-14T07:44:09.920Z,35.11
2023-05-14T07:45:09.910Z,35.11
2023-05-14T07:46:10.058Z,35.11
2023-05-14T07:47:09.911Z,35.01
2023-05-14T07:48:10.030Z,35.11
2023-05-14T07:49:09.881Z,35.31
2023-05-14T07:50:09.869Z,35.51
2023-05-14T07:51:09.844Z,35.61
2023-05-14T07:52:10.003Z,35.61
2023-05-14T07:53:09.829Z,35.71
2023-05-14T07:54:09.817Z,35.71
2023-05-14T07:55:09.806Z,35.71
2023-05-14T07:56:09.790Z,35.81
2023-05-14T07:57:09.788Z,35.81
2023-05-14T07:58:09.786Z,35.79
2023-05-14T07:59:09.766Z,35.69
2023-05-14T08:00:09.755Z,35.69
2023-05-14T08:01:09.736Z,35.59
2023-05-14T08:02:09.817Z,35.59
2023-05-14T08:03:09.926Z,35.59
2023-05-14T08:04:09.778Z,35.61
2023-05-14T08:05:09.698Z,35.59
2023-05-14T08:06:09.692Z,35.69
2023-05-14T08:07:09.723Z,35.79
2023-05-14T08:08:09.668Z,35.79
2023-05-14T08:09:09.951Z,35.79
2023-05-14T08:10:09.639Z,35.69
2023-05-14T08:11:09.679Z,35.59
2023-05-14T08:12:09.631Z,35.59
2023-05-14T08:13:09.631Z,35.49
2023-05-14T08:14:09.614Z,35.49
2023-05-14T08:15:09.636Z,35.49
2023-05-14T08:16:09.592Z,35.49
2023-05-14T08:17:09.738Z,35.49
2023-05-14T08:18:09.638Z,35.49
2023-05-14T08:19:09.596Z,35.49
2023-05-14T08:20:09.543Z,35.49
2023-05-14T08:21:09.538Z,35.49
2023-05-14T08:22:09.523Z,35.49
2023-05-14T08:23:09.507Z,35.39
2023-05-14T08:24:09.507Z,35.39
2023-05-14T08:25:09.493Z,35.39
2023-05-14T08:26:09.657Z,35.29
2023-05-14T08:27:09.469Z,35.29
2023-05-14T08:28:09.465Z,35.29
2023-05-14T08:29:11.152Z,35.19
2023-05-14T08:30:09.443Z,35.19
2023-05-14T08:31:09.496Z,35.19
2023-05-14T08:32:22.196Z,35.19
2023-05-14T08:33:09.478Z,35.21
2023-05-14T08:34:09.414Z,35.21
2023-05-14T08:35:09.381Z,35.21
2023-05-14T08:36:09.386Z,35.31
2023-05-14T08:37:09.372Z,35.39
2023-05-14T08:38:09.361Z,35.31
2023-05-14T08:39:09.345Z,35.31
2023-05-14T08:40:09.344Z,35.31
2023-05-14T08:41:09.322Z,35.31
2023-05-14T08:42:09.324Z,35.41
2023-05-14T08:43:09.440Z,35.41
2023-05-14T08:44:09.297Z,35.51
2023-05-14T08:45:09.278Z,35.51
2023-05-14T08:46:09.274Z,35.51
2023-05-14T08:47:09.254Z,35.51
2023-05-14T08:48:09.354Z,35.51
2023-05-14T08:49:09.339Z,35.51
2023-05-14T08:50:09.231Z,35.41
2023-05-14T08:51:09.219Z,35.41
2023-05-14T08:52:09.221Z,35.31
2023-05-14T08:53:09.195Z,35.41
2023-05-14T08:54:09.341Z,35.41
2023-05-14T08:55:09.172Z,35.41
2023-05-14T08:56:09.172Z,35.41
2023-05-14T08:57:09.164Z,35.41
2023-05-14T08:58:09.147Z,35.51
2023-05-14T08:59:09.133Z,35.51
2023-05-14T09:00:09.314Z,35.51
2023-05-14T09:01:09.105Z,35.61
2023-05-14T09:02:09.183Z,35.61
2023-05-14T09:03:09.143Z,35.61
2023-05-14T09:04:09.114Z,35.61
2023-05-14T09:05:09.074Z,35.51
2023-05-14T09:06:09.306Z,35.41
2023-05-14T09:07:09.058Z,35.21
2023-05-14T09:08:09.030Z,35.01
2023-05-14T09:09:09.042Z,34.91
2023-05-14T09:10:09.030Z,35.01
2023-05-14T09:11:09.015Z,34.91
2023-05-14T09:12:09.293Z,34.91
2023-05-14T09:13:08.990Z,34.91
2023-05-14T09:14:08.977Z,34.81
2023-05-14T09:15:08.963Z,34.91
2023-05-14T09:16:08.990Z,34.91
2023-05-14T09:17:08.947Z,34.81
2023-05-14T09:18:09.116Z,34.71
2023-05-14T09:19:08.995Z,34.81
2023-05-14T09:20:08.913Z,34.51
2023-05-14T09:21:08.910Z,34.21
2023-05-14T09:22:08.892Z,33.91
2023-05-14T09:23:08.882Z,34.01
2023-05-14T09:24:08.877Z,33.81
2023-05-14T09:25:08.881Z,33.81
2023-05-14T09:26:08.853Z,33.61
2023-05-14T09:27:08.842Z,33.72
2023-05-14T09:28:08.857Z,33.61
2023-05-14T09:29:08.953Z,33.61
2023-05-14T09:30:08.831Z,33.61
2023-05-14T09:31:08.821Z,33.51
2023-05-14T09:32:08.819Z,33.51
2023-05-14T09:33:08.792Z,33.42
2023-05-14T09:34:08.767Z,33.51
2023-05-14T09:35:08.793Z,33.42
2023-05-14T09:36:08.747Z,33.31
2023-05-14T09:37:08.740Z,33.31
2023-05-14T09:38:08.736Z,33.42
2023-05-14T09:39:08.718Z,33.42
2023-05-14T09:40:08.699Z,33.51
2023-05-14T09:41:08.845Z,33.51
2023-05-14T09:42:08.680Z,33.51
2023-05-14T09:43:08.673Z,33.51
2023-05-14T09:44:08.680Z,33.31
2023-05-14T09:45:08.681Z,33.42
2023-05-14T09:46:08.643Z,33.42
2023-05-14T09:47:08.697Z,33.42
2023-05-14T09:48:08.715Z,33.42
2023-05-14T09:49:08.618Z,33.51
2023-05-14T09:50:08.605Z,33.51
2023-05-14T09:51:08.593Z,33.51
2023-05-14T09:52:08.736Z,33.61
2023-05-14T09:53:08.577Z,33.61
2023-05-14T09:54:08.556Z,33.51
2023-05-14T09:55:08.555Z,33.51
2023-05-14T09:56:08.530Z,33.61
2023-05-14T09:57:08.526Z,33.61
2023-05-14T09:58:08.606Z,33.42
2023-05-14T09:59:08.507Z,33.31
2023-05-14T10:00:08.494Z,33.22
2023-05-14T10:01:08.514Z,33.22
2023-05-14T10:02:08.474Z,33.01
2023-05-14T10:03:08.537Z,32.71
2023-05-14T10:04:08.625Z,32.71
2023-05-14T10:05:08.479Z,32.82
2023-05-14T10:06:08.432Z,32.82
2023-05-14T10:07:08.449Z,32.82
2023-05-14T10:08:08.419Z,32.82
2023-05-14T10:09:08.406Z,32.71
2023-05-14T10:10:08.392Z,32.71
2023-05-14T10:11:08.389Z,32.63
2023-05-14T10:12:08.381Z,32.53
2023-05-14T10:13:08.376Z,32.43
2023-05-14T10:14:08.374Z,32.43
2023-05-14T10:15:08.641Z,32.53
2023-05-14T10:16:08.343Z,32.63
2023-05-14T10:17:08.345Z,32.73
2023-05-14T10:18:08.325Z,32.83
2023-05-14T10:19:08.353Z,32.93
2023-05-14T10:20:08.295Z,32.93
2023-05-14T10:21:08.285Z,32.93
2023-05-14T10:22:08.269Z,32.93
2023-05-14T10:23:08.274Z,32.93
2023-05-14T10:24:08.249Z,32.93
2023-05-14T10:25:08.239Z,32.92
2023-05-14T10:26:08.272Z,33.03
2023-05-14T10:27:08.225Z,33.01
2023-05-14T10:28:08.202Z,33.01
2023-05-14T10:29:08.199Z,32.92
2023-05-14T10:30:08.194Z,32.82
2023-05-14T10:31:08.222Z,32.92
2023-05-14T10:32:08.317Z,32.92
2023-05-14T10:33:08.227Z,32.92
2023-05-14T10:34:08.137Z,32.92
2023-05-14T10:35:08.139Z,32.92
2023-05-14T10:36:08.143Z,33.12
2023-05-14T10:37:08.118Z,33.31
2023-05-14T10:38:08.264Z,33.42
2023-05-14T10:39:08.083Z,33.22
2023-05-14T10:40:08.083Z,33.22
2023-05-14T10:41:08.105Z,33.22
2023-05-14T10:42:08.064Z,33.12
2023-05-14T10:43:08.069Z,32.71
2023-05-14T10:44:08.081Z,32.52
2023-05-14T10:45:08.036Z,32.22
2023-05-14T10:46:08.072Z,32.32
2023-05-14T10:47:08.022Z,32.22
2023-05-14T10:48:08.013Z,32.12
2023-05-14T10:49:08.143Z,32.02
2023-05-14T10:50:07.984Z,32.12
2023-05-14T10:51:07.990Z,32.02
2023-05-14T10:52:07.947Z,31.90
2023-05-14T10:53:07.938Z,31.81
2023-05-14T10:54:07.936Z,31.60
2023-05-14T10:55:08.128Z,31.51
2023-05-14T10:56:07.952Z,31.51
2023-05-14T10:57:07.909Z,31.40
2023-05-14T10:58:07.896Z,31.10
2023-05-14T10:59:07.884Z,30.91
2023-05-14T11:00:07.878Z,30.91
2023-05-14T11:01:08.031Z,30.80
2023-05-14T11:02:07.941Z,30.61
2023-05-14T11:03:07.923Z,30.61
2023-05-14T11:04:07.864Z,30.61
2023-05-14T11:05:07.832Z,30.61
2023-05-14T11:06:07.825Z,30.61
2023-05-14T11:07:07.809Z,30.41
2023-05-14T11:08:07.807Z,30.41
2023-05-14T11:09:07.778Z,30.31
2023-05-14T11:10:07.763Z,30.21
2023-05-14T11:11:07.754Z,30.21
2023-05-14T11:12:07.742Z,30.51
2023-05-14T11:13:07.739Z,30.51
2023-05-14T11:14:10.126Z,30.51
2023-05-14T11:15:07.722Z,30.61
2023-05-14T11:17:08.120Z,30.71
2023-05-14T11:18:07.706Z,30.69
2023-05-14T11:19:07.725Z,30.59
2023-05-14T11:20:07.668Z,30.40
2023-05-14T11:21:07.662Z,30.29
2023-05-14T11:22:07.649Z,30.19
2023-05-14T11:23:07.806Z,30.29
2023-05-14T11:24:07.639Z,30.40
2023-05-14T11:25:07.611Z,30.40
2023-05-14T11:26:07.624Z,30.29
2023-05-14T11:27:07.590Z,30.19
2023-05-14T11:28:07.573Z,29.99
2023-05-14T11:29:07.724Z,29.99
2023-05-14T11:30:07.557Z,29.90
2023-05-14T11:31:07.559Z,29.80
2023-05-14T11:32:07.567Z,29.60
2023-05-14T11:33:07.588Z,29.30
2023-05-14T11:34:07.515Z,29.30
2023-05-14T11:35:07.510Z,29.39
2023-05-14T11:36:07.497Z,29.50
2023-05-14T11:37:07.486Z,29.50
2023-05-14T11:38:09.250Z,29.60
2023-05-14T11:39:07.467Z,29.69
2023-05-14T11:40:07.620Z,29.80
2023-05-14T11:41:07.459Z,29.69
2023-05-14T11:42:07.428Z,29.60
2023-05-14T11:43:07.432Z,29.50
2023-05-14T11:44:09.054Z,29.60
2023-05-14T11:45:07.418Z,29.50
2023-05-14T11:46:07.588Z,29.41
2023-05-14T11:47:07.406Z,29.30
2023-05-14T11:48:07.397Z,29.21
2023-05-14T11:49:07.374Z,29.10
2023-05-14T11:50:09.266Z,28.91
2023-05-14T11:51:07.334Z,29.01
2023-05-14T11:52:07.488Z,29.01
2023-05-14T11:53:07.358Z,29.11
2023-05-14T11:54:07.308Z,29.11
2023-05-14T11:55:07.300Z,29.31
2023-05-14T11:56:09.672Z,29.41
2023-05-14T11:57:07.305Z,29.50
2023-05-14T11:58:07.283Z,29.51
2023-05-14T11:59:07.280Z,29.51
2023-05-14T12:00:07.241Z,29.51
2023-05-14T12:01:07.242Z,30.11
2023-05-14T12:02:07.255Z,29.51
2023-05-14T12:03:07.456Z,29.60
2023-05-14T12:04:07.325Z,29.39
2023-05-14T12:05:07.224Z,29.30
2023-05-14T12:06:07.187Z,29.39
2023-05-14T12:07:07.185Z,29.30
2023-05-14T12:08:07.155Z,29.30
2023-05-14T12:09:07.319Z,29.50
2023-05-14T12:10:07.146Z,29.30
2023-05-14T12:11:07.125Z,29.10
2023-05-14T12:12:07.116Z,28.90
2023-05-14T12:13:07.104Z,28.80
2023-05-14T12:14:07.118Z,28.80
2023-05-14T12:15:07.232Z,28.70
2023-05-14T12:16:07.096Z,28.70
2023-05-14T12:17:07.064Z,28.40
2023-05-14T12:19:07.113Z,28.10
2023-05-14T12:20:07.032Z,28.20
2023-05-14T12:21:07.030Z,28.00
2023-05-14T12:22:07.006Z,28.10
2023-05-14T12:23:07.015Z,28.10
2023-05-14T12:24:06.991Z,28.50
2023-05-14T12:25:06.992Z,28.50
2023-05-14T12:26:07.096Z,28.10
2023-05-14T12:27:06.960Z,28.20
2023-05-14T12:28:06.944Z,28.00
2023-05-14T12:29:06.950Z,27.90
2023-05-14T12:30:20.720Z,27.80
2023-05-14T12:31:07.025Z,27.80
2023-05-14T12:32:07.069Z,27.80
2023-05-14T12:33:06.939Z,28.00
2023-05-14T12:34:06.889Z,27.90
2023-05-14T12:35:06.875Z,27.60
2023-05-14T12:37:06.856Z,27.90
2023-05-14T12:38:06.911Z,27.90
2023-05-14T12:39:06.867Z,28.40
2023-05-14T12:40:06.817Z,28.49
2023-05-14T12:41:06.819Z,28.28
2023-05-14T12:42:06.801Z,28.09
2023-05-14T12:43:06.807Z,27.79
2023-05-14T12:44:06.788Z,27.89
2023-05-14T12:45:06.775Z,27.69
2023-05-14T12:46:06.761Z,27.69
2023-05-14T12:47:06.793Z,27.49
2023-05-14T12:48:06.807Z,27.39
2023-05-14T12:49:06.951Z,27.29
2023-05-14T12:50:06.711Z,27.39
2023-05-14T12:51:06.713Z,27.29
2023-05-14T12:52:22.797Z,27.39
2023-05-14T12:53:06.699Z,27.49
2023-05-14T12:54:06.678Z,27.49
2023-05-14T12:55:06.796Z,27.59
2023-05-14T12:56:06.654Z,27.59